Time;durP1;ratioP1;P1;durP2;ratioP2;P2;SDS_P1;SDS_P2;PMS_P1;PMS_P2;Temp;Humidity;BMP_temperature;BMP_pressure;BME280_temperature;BME280_humidity;BME280_pressure;Samples;Min_cycle;Max_cycle;Signal;HPM_P1;HPM_P2
2024/03/16 06:42:21;;;;;;;4.82;3.38;;;;;;;;;;10766725;27;20416;-83
2024/03/16 06:47:22;;;;;;;2.65;1.70;;;;;;;;;;10679495;27;20045;-83
2024/03/16 06:52:46;;;;;;;3.03;1.75;;;;;;;;;;10657532;27;20057;-83
2024/03/16 06:57:47;;;;;;;2.42;1.40;;;;;;;;;;10657696;27;20052;-82
2024/03/16 07:03:11;;;;;;;1.95;1.13;;;;;;;;;;10674923;27;20126;-83
2024/03/16 07:08:16;;;;;;;1.90;1.30;;;;;;;;;;10654870;27;20027;-83
2024/03/16 07:19:54;;;;;;;2.60;1.02;;;;;;;;;;10674450;27;20051;-83
2024/03/16 07:25:43;;;;;;;2.20;0.98;;;;;;;;;;10338429;28;20066;-84
2024/03/16 07:31:28;;;;;;;1.48;0.80;;;;;;;;;;10330682;28;20113;-83
2024/03/16 07:36:53;;;;;;;1.55;0.88;;;;;;;;;;10448351;28;20112;-83
2024/03/16 07:48:05;;;;;;;1.02;0.70;;;;;;;;;;10683960;27;20035;-83
2024/03/16 07:53:25;;;;;;;2.28;0.90;;;;;;;;;;10649293;27;20023;-83
2024/03/16 07:58:27;;;;;;;1.15;0.70;;;;;;;;;;10630320;27;20034;-83
2024/03/16 08:03:27;;;;;;;;;;;;;;;;;;10631243;27;20035;-83
2024/03/16 08:08:36;;;;;;;0.85;0.52;;;;;;;;;;10647781;27;19907;-84
2024/03/16 08:13:38;;;;;;;2.13;0.80;;;;;;;;;;10645014;27;20025;-83
2024/03/16 08:18:39;;;;;;;1.13;0.60;;;;;;;;;;10645427;27;20080;-83
2024/03/16 08:23:49;;;;;;;;;;;;;;;;;;10646044;27;20069;-82
2024/03/16 08:29:28;;;;;;;3.38;0.70;;;;;;;;;;10628930;27;19907;-83
2024/03/16 09:41:13;;;;;;;3.22;0.77;;;;;;;;;;10540877;27;20074;-86
2024/03/16 09:46:25;;;;;;;5.13;0.90;;;;;;;;;;10639024;27;20482;-86
2024/03/16 09:51:34;;;;;;;1.85;0.80;;;;;;;;;;10625636;27;20398;-86
2024/03/16 09:56:39;;;;;;;3.40;0.82;;;;;;;;;;10645505;27;20035;-86
2024/03/16 10:01:44;;;;;;;4.32;0.80;;;;;;;;;;10645291;27;20028;-86
2024/03/16 10:06:51;;;;;;;2.38;0.75;;;;;;;;;;10618126;27;20037;-84
2024/03/16 10:11:54;;;;;;;2.40;0.80;;;;;;;;;;10638172;27;20037;-85
2024/03/16 10:17:02;;;;;;;3.00;0.70;;;;;;;;;;10618526;27;20095;-85
2024/03/16 10:22:15;;;;;;;3.80;0.68;;;;;;;;;;10618025;27;20023;-85
2024/03/16 10:27:17;;;;;;;2.15;0.70;;;;;;;;;;10618867;27;20027;-85
2024/03/16 10:32:23;;;;;;;1.25;0.40;;;;;;;;;;10620694;27;20118;-85
2024/03/16 10:37:28;;;;;;;1.13;0.45;;;;;;;;;;10626388;27;20067;-86
2024/03/16 10:42:33;;;;;;;2.15;0.65;;;;;;;;;;10641250;28;20046;-85
2024/03/16 10:48:02;;;;;;;1.27;0.45;;;;;;;;;;10622537;27;20086;-86
2024/03/16 10:53:10;;;;;;;2.63;0.70;;;;;;;;;;10624544;28;20490;-85
2024/03/16 10:58:32;;;;;;;1.80;0.88;;;;;;;;;;10645276;27;20031;-86
2024/03/16 11:03:39;;;;;;;2.42;1.02;;;;;;;;;;10632834;28;20092;-82
2024/03/16 11:08:50;;;;;;;5.13;2.10;;;;;;;;;;10599841;28;20035;-83
2024/03/16 11:14:07;;;;;;;3.38;0.90;;;;;;;;;;10634190;28;20049;-83
2024/03/16 11:19:20;;;;;;;3.25;1.10;;;;;;;;;;10619334;28;20099;-83
2024/03/16 11:24:23;;;;;;;4.50;0.90;;;;;;;;;;10616392;27;20049;-83
2024/03/16 11:29:28;;;;;;;3.72;0.82;;;;;;;;;;10624449;27;20038;-83
2024/03/16 11:34:42;;;;;;;4.60;1.65;;;;;;;;;;10643260;27;20063;-83
2024/03/16 11:45:46;;;;;;;3.20;0.88;;;;;;;;;;10600863;27;20039;-82
2024/03/16 11:50:48;;;;;;;2.22;1.13;;;;;;;;;;10628150;27;20027;-84
2024/03/16 11:55:55;;;;;;;4.28;0.90;;;;;;;;;;10607723;27;20387;-83
2024/03/16 12:00:57;;;;;;;2.92;0.85;;;;;;;;;;10621942;27;20399;-84
2024/03/16 12:06:11;;;;;;;4.72;1.10;;;;;;;;;;10642408;27;20031;-83
2024/03/16 12:11:40;;;;;;;2.22;0.77;;;;;;;;;;10641871;27;20053;-84
2024/03/16 12:16:49;;;;;;;5.60;0.90;;;;;;;;;;10603143;27;20039;-82
2024/03/16 12:22:27;;;;;;;4.45;1.25;;;;;;;;;;10638670;27;20051;-83
2024/03/16 12:27:31;;;;;;;2.72;0.90;;;;;;;;;;10508656;28;20067;-83
2024/03/16 12:32:35;;;;;;;2.28;1.05;;;;;;;;;;10609731;27;20031;-82
2024/03/16 12:38:11;;;;;;;3.25;0.80;;;;;;;;;;10622878;27;20031;-82
2024/03/16 12:49:16;;;;;;;2.58;0.90;;;;;;;;;;10616124;27;20502;-82
2024/03/16 12:59:54;;;;;;;4.35;1.00;;;;;;;;;;10647026;27;20047;-80
2024/03/16 13:04:56;;;;;;;3.70;0.80;;;;;;;;;;10626575;27;20031;-82
2024/03/16 13:09:58;;;;;;;4.35;0.95;;;;;;;;;;10639042;27;20534;-80
2024/03/16 13:15:03;;;;;;;2.30;0.90;;;;;;;;;;10639097;27;20045;-80
2024/03/16 13:20:04;;;;;;;3.22;1.15;;;;;;;;;;10638147;27;20046;-80
2024/03/16 13:25:05;;;;;;;2.22;1.00;;;;;;;;;;10636952;27;20035;-80
2024/03/16 13:30:07;;;;;;;2.53;0.98;;;;;;;;;;10618196;27;20035;-80
2024/03/16 13:35:08;;;;;;;3.60;1.30;;;;;;;;;;10619940;27;20050;-80
2024/03/16 13:40:09;;;;;;;2.45;1.10;;;;;;;;;;10618368;27;20027;-80
2024/03/16 13:45:11;;;;;;;4.13;1.40;;;;;;;;;;10619623;27;20035;-80
2024/03/16 13:50:12;;;;;;;2.00;0.70;;;;;;;;;;10618048;27;20035;-80
2024/03/16 13:55:18;;;;;;;2.72;0.90;;;;;;;;;;10636431;27;20552;-81
2024/03/16 14:00:25;;;;;;;3.10;1.15;;;;;;;;;;10618385;27;20043;-80
2024/03/16 14:05:31;;;;;;;3.75;0.90;;;;;;;;;;10619733;27;20035;-84
2024/03/16 14:10:32;;;;;;;2.10;0.85;;;;;;;;;;10620760;27;20027;-84
2024/03/16 14:15:33;;;;;;;5.70;0.98;;;;;;;;;;10637448;27;20031;-85
2024/03/16 14:20:36;;;;;;;1.83;0.80;;;;;;;;;;10621440;27;20055;-86
2024/03/16 14:25:37;;;;;;;4.00;1.02;;;;;;;;;;10638208;27;20101;-83
2024/03/16 14:30:38;;;;;;;2.13;0.90;;;;;;;;;;10615982;27;20075;-81
2024/03/16 14:35:39;;;;;;;;;;;;;;;;;;10632536;27;20557;-79
2024/03/16 14:40:40;;;;;;;5.40;1.27;;;;;;;;;;10613779;28;19909;-79
2024/03/16 14:45:41;;;;;;;2.38;0.70;;;;;;;;;;10633109;27;20043;-79
2024/03/16 14:50:42;;;;;;;2.65;0.98;;;;;;;;;;10614813;28;20400;-80
2024/03/16 14:55:43;;;;;;;4.13;1.70;;;;;;;;;;10632870;27;20118;-80
2024/03/16 15:00:44;;;;;;;3.05;1.40;;;;;;;;;;10475231;22;20167;-81
2024/03/16 15:05:49;;;;;;;3.05;1.08;;;;;;;;;;10471326;28;20037;-80
2024/03/16 15:10:50;;;;;;;2.70;1.17;;;;;;;;;;10470674;28;20045;-81
2024/03/16 15:15:51;;;;;;;;;;;;;;;;;;10459928;28;20137;-81
2024/03/16 15:20:51;;;;;;;2.35;0.88;;;;;;;;;;10489241;28;19905;-80
2024/03/16 15:26:04;;;;;;;;;;;;;;;;;;10493864;28;20492;-80
2024/03/16 15:31:05;;;;;;;3.80;1.20;;;;;;;;;;10490557;28;19912;-81
2024/03/16 15:36:06;;;;;;;2.92;0.90;;;;;;;;;;10476573;28;20033;-81
2024/03/16 15:41:07;;;;;;;2.03;0.73;;;;;;;;;;10477820;28;20548;-81
2024/03/16 15:46:09;;;;;;;4.35;1.42;;;;;;;;;;10458396;28;20102;-81
2024/03/16 15:51:10;;;;;;;2.28;1.27;;;;;;;;;;10466791;28;20051;-81
2024/03/16 15:56:11;;;;;;;3.15;1.20;;;;;;;;;;10467112;28;20044;-81
2024/03/16 16:01:12;;;;;;;2.67;0.82;;;;;;;;;;10425295;28;20044;-80
2024/03/16 16:06:13;;;;;;;3.25;1.30;;;;;;;;;;10425911;28;20092;-80
2024/03/16 16:11:15;;;;;;;1.63;0.90;;;;;;;;;;10425532;28;20034;-81
2024/03/16 16:16:16;;;;;;;2.47;1.10;;;;;;;;;;10408733;28;20025;-80
2024/03/16 16:21:17;;;;;;;3.78;1.40;;;;;;;;;;10408298;28;20124;-81
2024/03/16 16:26:18;;;;;;;3.03;1.10;;;;;;;;;;10408300;28;20072;-81
2024/03/16 16:31:20;;;;;;;4.00;1.17;;;;;;;;;;10408034;28;20037;-81
2024/03/16 16:36:21;;;;;;;4.60;1.30;;;;;;;;;;10436981;28;20030;-81
2024/03/16 16:41:22;;;;;;;1.90;0.80;;;;;;;;;;10412001;28;20064;-79
2024/03/16 16:46:23;;;;;;;3.53;1.58;;;;;;;;;;10425443;28;20540;-80
2024/03/16 16:51:24;;;;;;;5.13;1.65;;;;;;;;;;10406697;28;20109;-79
2024/03/16 16:56:25;;;;;;;2.70;1.05;;;;;;;;;;10425197;28;20112;-80
2024/03/16 17:01:26;;;;;;;2.03;0.90;;;;;;;;;;10448293;28;20484;-80
2024/03/16 17:06:27;;;;;;;4.57;1.35;;;;;;;;;;10464595;28;20033;-80
2024/03/16 17:11:28;;;;;;;2.95;1.40;;;;;;;;;;10445404;28;20053;-80
2024/03/16 17:16:29;;;;;;;1.92;0.80;;;;;;;;;;10446195;28;20127;-79
2024/03/16 17:21:30;;;;;;;2.75;0.95;;;;;;;;;;10463168;28;20119;-80
2024/03/16 17:26:31;;;;;;;2.63;0.90;;;;;;;;;;10462756;28;20112;-80
2024/03/16 17:31:32;;;;;;;1.40;0.70;;;;;;;;;;10463273;28;20044;-80
2024/03/16 17:36:34;;;;;;;1.75;0.90;;;;;;;;;;10463882;28;20116;-80
2024/03/16 17:41:35;;;;;;;3.75;0.98;;;;;;;;;;10445415;28;20037;-80
2024/03/16 17:46:36;;;;;;;3.05;1.10;;;;;;;;;;10463912;28;20160;-79
2024/03/16 17:51:38;;;;;;;3.22;1.23;;;;;;;;;;10463590;28;20119;-80
2024/03/16 17:56:39;;;;;;;1.90;0.82;;;;;;;;;;10469179;28;20047;-81
2024/03/16 18:01:40;;;;;;;2.92;1.10;;;;;;;;;;10505631;28;20111;-82
2024/03/16 18:06:42;;;;;;;3.28;1.10;;;;;;;;;;10503886;28;20033;-80
2024/03/16 18:11:43;;;;;;;1.90;1.00;;;;;;;;;;10485976;28;20510;-82
2024/03/16 18:16:47;;;;;;;1.50;0.70;;;;;;;;;;10486755;28;20032;-80
2024/03/16 18:21:51;;;;;;;2.05;0.88;;;;;;;;;;10485933;28;20090;-79
2024/03/16 18:26:52;;;;;;;1.27;0.70;;;;;;;;;;10506432;28;20055;-81
2024/03/16 18:31:53;;;;;;;1.88;0.90;;;;;;;;;;10486678;28;20123;-79
2024/03/16 18:36:54;;;;;;;2.38;1.27;;;;;;;;;;10503909;28;20093;-80
2024/03/16 18:41:55;;;;;;;1.60;0.90;;;;;;;;;;10506629;28;20033;-81
2024/03/16 18:46:56;;;;;;;2.38;1.15;;;;;;;;;;10506119;28;20036;-80
2024/03/16 18:51:58;;;;;;;1.98;0.93;;;;;;;;;;10498093;28;20507;-80
2024/03/16 18:57:00;;;;;;;2.22;0.95;;;;;;;;;;10514168;28;20040;-80
2024/03/16 19:02:01;;;;;;;2.42;1.25;;;;;;;;;;10485314;28;20029;-81
2024/03/16 19:07:02;;;;;;;3.38;1.58;;;;;;;;;;10485969;28;20036;-80
2024/03/16 19:12:03;;;;;;;1.85;0.95;;;;;;;;;;10505685;28;20032;-80
2024/03/16 19:17:04;;;;;;;1.73;1.10;;;;;;;;;;10498910;28;20147;-80
2024/03/16 19:22:06;;;;;;;2.47;1.45;;;;;;;;;;10502870;28;20024;-80
2024/03/16 19:27:07;;;;;;;2.78;1.40;;;;;;;;;;10501165;28;20033;-80
2024/03/16 19:32:08;;;;;;;2.15;1.10;;;;;;;;;;10502442;28;20377;-81
2024/03/16 19:37:09;;;;;;;4.03;1.60;;;;;;;;;;10502121;28;20372;-81
2024/03/16 19:42:13;;;;;;;2.05;1.10;;;;;;;;;;10501802;28;20423;-80
2024/03/16 19:47:14;;;;;;;1.40;0.90;;;;;;;;;;10486733;28;20029;-80
2024/03/16 19:52:16;;;;;;;2.55;1.60;;;;;;;;;;10509116;28;20397;-80
2024/03/16 19:57:17;;;;;;;2.45;1.23;;;;;;;;;;10509215;28;20067;-80
2024/03/16 20:02:22;;;;;;;2.92;1.40;;;;;;;;;;10490472;28;20114;-80
